Forside
METAR-TAF:

METAR-TAF

Lufthavne :

Fort Chipewyan, Alberta, Canada

Breddekreds: 58-46N, længdekreds: 111-07W, højde: 232 m

Aktuelle vejr

Denne rapport blev lavet for 52 minutter siden, kl. 08:00 UTC
Vind 3 kt fra sydsydøst, varierende mellem øst og syd
Temperatur -2°C
Fugtighed 86%
Tryk 1023 hPa
Sigt: 14.5 km
Overskyet i en højde af 1300 ft

METAR: CYPY 220800Z AUTO 16003KT 100V170 9SM OVC013 M02/M04 A3020 RMK SLP242

Tid: 02:52 (08:52 UTC)

Vejrudsigter

Denne rapport blev lavet for 4 timer og 33 minutter siden, kl. 04:19 UTC
Foreløbig gælder fra 22 på 04 UTC til 22 på 06 UTC
Vind 3 kt fra varierende retninger
Sigt: 10 km
Spredte skyer i en højde af 1500 ft
Midlertidig
fra 22 på 04 UTC til 22 på 06 UTC
Brudte skyer i en højde af 1500 ft

TAF: CYPY 220419Z 2204/2206 VRB03KT P6SM SCT015 TEMPO 2204/2206 BKN015 RMK FCST BASED ON AUTO OBS. NXT FCST WILL BE ISSUED AT 221145Z

Vejrobservationer og prognoser fra mere end 4000 lufthavne (METAR og TAF).

De gule og røde prikker repræsenterer de meteorologiske stationer.

Flyt musen over at se navnet på stationen.

Så klik over at se vejr observationer og prognoser.

At skifte det kort: Klik på de grønne knapper med et sort kors for at zoome ind; på den grønne knap med en bindestreg for at zoome ud; eller på de grønne pile for tilstødende kort.


METAR-TAF: